createdAt,value
2018-06-25T00:00:20.320Z,2.7
2018-06-25T00:03:20.093Z,2.7
2018-06-25T00:06:20.207Z,2.7
2018-06-25T00:09:20.270Z,2.8
2018-06-25T00:12:20.154Z,2.7
2018-06-25T00:15:20.465Z,2.6
2018-06-25T00:18:20.335Z,2.6
2018-06-25T00:21:20.100Z,2.8
2018-06-25T00:24:20.262Z,2.7
2018-06-25T00:27:20.213Z,2.5
2018-06-25T00:30:20.260Z,2.7
2018-06-25T00:33:20.195Z,2.6
2018-06-25T00:36:20.140Z,3.7
2018-06-25T00:39:20.273Z,3.2
2018-06-25T00:42:20.276Z,2.8
2018-06-25T00:45:20.206Z,2.7
2018-06-25T00:48:20.216Z,2.6
2018-06-25T00:51:20.297Z,2.5
2018-06-25T00:54:20.247Z,2.4
2018-06-25T00:57:20.292Z,2.4
2018-06-25T01:00:20.272Z,2.5
2018-06-25T01:03:20.270Z,2.4
2018-06-25T01:06:20.346Z,2.5
2018-06-25T01:09:20.076Z,2.5
2018-06-25T01:12:20.161Z,2.4
2018-06-25T01:15:20.244Z,2.4
2018-06-25T01:18:20.179Z,2.4
2018-06-25T01:21:20.373Z,2.5
2018-06-25T01:24:20.166Z,2.5
2018-06-25T01:27:20.227Z,2.4
2018-06-25T01:30:20.246Z,2.4
2018-06-25T01:33:20.216Z,2.5
2018-06-25T01:36:20.117Z,2.5
2018-06-25T01:39:20.288Z,2.4
2018-06-25T01:42:20.215Z,2.4
2018-06-25T01:45:20.154Z,2.4
2018-06-25T01:48:20.305Z,2.3
2018-06-25T01:51:20.354Z,2.3
2018-06-25T01:54:20.297Z,2.4
2018-06-25T01:57:20.232Z,2.4
2018-06-25T02:00:20.131Z,2.5
2018-06-25T02:03:20.074Z,2.6
2018-06-25T02:06:20.099Z,2.5
2018-06-25T02:09:20.314Z,2.4
2018-06-25T02:12:20.194Z,2.3
2018-06-25T02:15:20.661Z,2.2
2018-06-25T02:18:20.100Z,2.2
2018-06-25T02:21:20.228Z,2.2
2018-06-25T02:24:20.008Z,2.1
2018-06-25T02:27:20.365Z,2.3
2018-06-25T02:30:20.335Z,2.3
2018-06-25T02:33:20.358Z,2.2
2018-06-25T02:36:20.075Z,2.3
2018-06-25T02:39:20.117Z,2.3
2018-06-25T02:42:20.149Z,2.2
2018-06-25T02:45:20.255Z,2.3
2018-06-25T02:48:19.980Z,2.3
2018-06-25T02:51:20.266Z,2.2
2018-06-25T02:54:20.267Z,2.2
2018-06-25T02:57:20.284Z,2.2
2018-06-25T03:00:20.062Z,2.2
2018-06-25T03:03:20.304Z,2.1
2018-06-25T03:06:20.529Z,2.1
2018-06-25T03:09:20.319Z,2.2
2018-06-25T03:12:20.112Z,2.2
2018-06-25T03:15:20.148Z,2.3
2018-06-25T03:18:20.219Z,2.3
2018-06-25T03:21:20.112Z,2.2
2018-06-25T03:24:20.402Z,2.1
2018-06-25T03:27:20.251Z,2.3
2018-06-25T03:30:20.304Z,2.3
2018-06-25T03:33:20.071Z,2.2
2018-06-25T03:36:20.178Z,2.2
2018-06-25T03:39:20.224Z,2.1
2018-06-25T03:42:20.086Z,2.1
2018-06-25T03:45:20.266Z,2.1
2018-06-25T03:48:20.022Z,2.2
2018-06-25T03:51:20.045Z,2.2
2018-06-25T03:54:20.064Z,2.1
2018-06-25T03:57:20.244Z,2.2
2018-06-25T04:00:20.167Z,2.2
2018-06-25T04:03:20.340Z,2.2
2018-06-25T04:06:20.075Z,2.2
2018-06-25T04:09:20.242Z,2.2
2018-06-25T04:12:20.165Z,2.3
2018-06-25T04:15:20.202Z,2.2
2018-06-25T04:18:20.238Z,2.1
2018-06-25T04:21:20.159Z,2.1
2018-06-25T04:24:20.230Z,2.2
2018-06-25T04:27:20.272Z,2.2
2018-06-25T04:30:20.291Z,2.3
2018-06-25T04:33:20.203Z,2.2
2018-06-25T04:36:20.108Z,2.2
2018-06-25T04:39:20.093Z,2.2
2018-06-25T04:42:20.465Z,2.2
2018-06-25T04:45:20.173Z,2.2
2018-06-25T04:48:20.087Z,2.2
2018-06-25T04:51:20.198Z,2.3
2018-06-25T04:54:20.149Z,2.3
2018-06-25T04:57:20.065Z,2.2
2018-06-25T05:00:20.117Z,2.2
2018-06-25T05:03:20.214Z,2.3
2018-06-25T05:06:20.114Z,2.2
2018-06-25T05:09:20.089Z,2.2
2018-06-25T05:12:19.996Z,2.2
2018-06-25T05:15:20.191Z,2.1
2018-06-25T05:18:20.357Z,2.2
2018-06-25T05:21:40.364Z,2.2
2018-06-25T05:24:20.085Z,2.1
2018-06-25T05:27:20.247Z,2.2
2018-06-25T05:30:20.167Z,2.1
2018-06-25T05:33:20.046Z,2.1
2018-06-25T05:36:20.212Z,2.1
2018-06-25T05:39:20.054Z,2.1
2018-06-25T05:42:20.197Z,2.1
2018-06-25T05:45:20.163Z,2.1
2018-06-25T05:48:20.123Z,2
2018-06-25T05:51:20.130Z,2
2018-06-25T05:54:20.105Z,2.1
2018-06-25T05:57:20.074Z,2.1
2018-06-25T06:00:20.188Z,2.2
2018-06-25T06:03:19.964Z,2.2
2018-06-25T06:06:20.075Z,2.3
2018-06-25T06:09:20.093Z,2.3
2018-06-25T06:12:20.429Z,2.3
2018-06-25T06:15:20.099Z,2.2
2018-06-25T06:18:20.297Z,2.2
2018-06-25T06:21:20.313Z,2.3
2018-06-25T06:24:20.737Z,2.2
2018-06-25T06:27:20.569Z,2.1
2018-06-25T06:30:20.508Z,2.2
2018-06-25T06:33:20.243Z,2.2
2018-06-25T06:36:20.210Z,2.2
2018-06-25T06:39:20.294Z,2.2
2018-06-25T06:42:19.973Z,2.5
2018-06-25T06:45:20.507Z,2.2
2018-06-25T06:48:20.160Z,2.3
2018-06-25T06:51:20.104Z,3.5
2018-06-25T06:54:20.158Z,5.1
2018-06-25T06:57:20.186Z,4.8
2018-06-25T07:00:20.073Z,3.8
2018-06-25T07:03:20.449Z,5
2018-06-25T07:06:20.317Z,4.5
2018-06-25T07:09:20.096Z,4.9
2018-06-25T07:12:20.212Z,4.1
2018-06-25T07:15:20.233Z,3.7
2018-06-25T07:18:20.056Z,3.4
2018-06-25T07:21:20.262Z,3.8
2018-06-25T07:24:20.166Z,3.4
2018-06-25T07:27:20.032Z,3.6
2018-06-25T07:30:20.085Z,4.2
2018-06-25T07:33:20.113Z,3.7
2018-06-25T07:36:20.109Z,3.4
2018-06-25T07:39:20.018Z,3.3
2018-06-25T07:42:20.239Z,3.6
2018-06-25T07:45:20.044Z,3.3
2018-06-25T07:48:20.346Z,3.1
2018-06-25T07:51:19.933Z,3
2018-06-25T07:54:20.077Z,3.2
2018-06-25T07:57:19.979Z,3.6
2018-06-25T08:00:20.121Z,3.4
2018-06-25T08:03:20.030Z,3.3
2018-06-25T08:06:20.161Z,3.6
2018-06-25T08:09:20.184Z,3.2
2018-06-25T08:12:20.058Z,3
2018-06-25T08:15:20.121Z,3.3
2018-06-25T08:18:20.017Z,2.9
2018-06-25T08:21:20.057Z,3.4
2018-06-25T08:24:20.114Z,3.2
2018-06-25T08:27:19.996Z,3.3
2018-06-25T08:30:20.114Z,3
2018-06-25T08:33:20.145Z,2.8
2018-06-25T08:36:20.144Z,2.7
2018-06-25T08:39:20.253Z,3.2
2018-06-25T08:42:20.254Z,2.9
2018-06-25T08:45:20.057Z,3.2
2018-06-25T08:48:20.130Z,3
2018-06-25T08:51:20.131Z,2.8
2018-06-25T08:54:20.380Z,2.8
2018-06-25T08:57:20.141Z,2.7
2018-06-25T09:00:20.024Z,2.6
2018-06-25T09:03:21.343Z,2.5
2018-06-25T09:06:20.424Z,2.6
2018-06-25T09:09:20.162Z,2.6
2018-06-25T09:12:20.092Z,2.6
2018-06-25T09:15:21.070Z,2.6
2018-06-25T09:18:20.092Z,2.6
2018-06-25T09:21:19.980Z,2.6
2018-06-25T09:24:20.045Z,2.6
2018-06-25T09:27:20.055Z,2.6
2018-06-25T09:30:20.061Z,2.5
2018-06-25T09:33:20.077Z,2.6
2018-06-25T09:36:20.250Z,3.1
2018-06-25T09:39:19.915Z,2.8
2018-06-25T09:42:20.033Z,2.7
2018-06-25T09:45:20.024Z,2.9
2018-06-25T09:48:19.998Z,3.1
2018-06-25T09:51:19.978Z,3.4
2018-06-25T09:54:19.940Z,3.2
2018-06-25T09:57:20.164Z,3.1
2018-06-25T10:00:20.199Z,2.9
2018-06-25T10:03:20.153Z,3.2
2018-06-25T10:06:20.185Z,3.3
2018-06-25T10:09:20.105Z,3.1
2018-06-25T10:12:20.261Z,3.5
2018-06-25T10:15:20.469Z,3.3
2018-06-25T10:18:20.168Z,3.2
2018-06-25T10:21:20.892Z,3.2
2018-06-25T10:24:20.086Z,3
2018-06-25T10:27:20.173Z,3.1
2018-06-25T10:30:20.145Z,3
2018-06-25T10:33:20.209Z,2.9
2018-06-25T10:36:20.121Z,2.9
2018-06-25T10:39:20.089Z,2.9
2018-06-25T10:42:21.210Z,3.1
2018-06-25T10:45:20.039Z,3
2018-06-25T10:48:20.069Z,3.1
2018-06-25T10:51:20.524Z,3.1
2018-06-25T10:54:20.017Z,3.1
2018-06-25T10:57:19.894Z,3.5
2018-06-25T11:00:22.914Z,5.4
2018-06-25T11:03:19.961Z,4.2
2018-06-25T11:06:20.001Z,4.1
2018-06-25T11:09:20.003Z,3.5
2018-06-25T11:12:20.062Z,3.7
2018-06-25T11:15:20.130Z,3.7
2018-06-25T11:18:20.030Z,3.4
2018-06-25T11:21:19.979Z,3.1
2018-06-25T11:24:20.043Z,3.1
2018-06-25T11:27:21.227Z,2.9
2018-06-25T11:30:20.143Z,3
2018-06-25T11:33:19.886Z,3.2
2018-06-25T11:36:20.180Z,3.3
2018-06-25T11:39:20.192Z,3.3
2018-06-25T11:42:20.220Z,3.4
2018-06-25T11:45:20.015Z,3
2018-06-25T11:48:20.077Z,2.9
2018-06-25T11:51:20.032Z,2.8
2018-06-25T11:54:20.189Z,2.8
2018-06-25T11:57:19.884Z,2.9
2018-06-25T12:00:20.072Z,2.9
2018-06-25T12:03:21.211Z,2.8
2018-06-25T12:06:19.874Z,2.9
2018-06-25T12:09:20.103Z,5.1
2018-06-25T12:12:20.856Z,6.2
2018-06-25T12:15:19.924Z,5.2
2018-06-25T12:18:19.984Z,4
2018-06-25T12:21:20.123Z,4.5
2018-06-25T12:24:19.990Z,4.1
2018-06-25T12:27:20.150Z,6.6
2018-06-25T12:30:19.941Z,8.2
2018-06-25T12:33:19.989Z,6.9
2018-06-25T12:36:20.162Z,6.2
2018-06-25T12:39:20.212Z,6.3
2018-06-25T12:42:20.016Z,4.5
2018-06-25T12:45:19.914Z,3.7
2018-06-25T12:48:20.614Z,3.9
2018-06-25T12:51:19.944Z,3.6
2018-06-25T12:54:20.217Z,3.3
2018-06-25T12:57:19.955Z,3
2018-06-25T13:00:20.138Z,3.5
2018-06-25T13:03:20.105Z,3
2018-06-25T13:06:19.997Z,3.4
2018-06-25T13:09:19.949Z,3.5
2018-06-25T13:12:20.146Z,3.1
2018-06-25T13:15:20.152Z,3
2018-06-25T13:18:20.720Z,4.3
2018-06-25T13:21:20.021Z,3.4
2018-06-25T13:24:19.996Z,3.6
2018-06-25T13:27:19.988Z,4
2018-06-25T13:30:20.187Z,4.2
2018-06-25T13:33:20.136Z,4
2018-06-25T13:36:20.125Z,3.7
2018-06-25T13:39:20.121Z,3.5
2018-06-25T13:42:20.166Z,3.2
2018-06-25T13:45:20.073Z,3.3
2018-06-25T13:48:20.821Z,4.5
2018-06-25T13:51:19.974Z,4.4
2018-06-25T13:54:20.077Z,3.5
2018-06-25T13:57:20.325Z,3.5
2018-06-25T14:00:20.107Z,4
2018-06-25T14:03:19.978Z,3.7
2018-06-25T14:06:20.081Z,3.7
2018-06-25T14:09:20.304Z,3.4
2018-06-25T14:12:20.097Z,2.8
2018-06-25T14:15:20.022Z,2.9
2018-06-25T14:18:19.986Z,4.2
2018-06-25T14:21:19.934Z,3.3
2018-06-25T14:24:20.203Z,3
2018-06-25T14:27:19.885Z,2.7
2018-06-25T14:30:20.185Z,2.6
2018-06-25T14:33:20.223Z,2.7
2018-06-25T14:36:20.041Z,2.7
2018-06-25T14:39:19.871Z,2.5
2018-06-25T14:42:19.895Z,2.8
2018-06-25T14:45:20.687Z,3.4
2018-06-25T14:48:20.915Z,3.9
2018-06-25T14:51:20.061Z,3.2
2018-06-25T14:54:19.915Z,3.2
2018-06-25T14:57:19.985Z,2.7
2018-06-25T15:00:19.876Z,2.4
2018-06-25T15:03:20.153Z,2.8
2018-06-25T15:06:20.074Z,2.8
2018-06-25T15:09:19.821Z,2.7
2018-06-25T15:12:20.078Z,2.9
2018-06-25T15:15:20.123Z,2.7
2018-06-25T15:18:19.877Z,3.8
2018-06-25T15:21:19.931Z,5.2
2018-06-25T15:24:19.950Z,4.6
2018-06-25T15:27:19.905Z,4.4
2018-06-25T15:30:20.054Z,4.3
2018-06-25T15:33:19.956Z,4.4
2018-06-25T15:36:19.848Z,3.4
2018-06-25T15:39:20.045Z,4.1
2018-06-25T15:42:19.964Z,4.2
2018-06-25T15:45:19.883Z,3.7
2018-06-25T15:48:19.852Z,3.4
2018-06-25T15:51:20.034Z,3.3
2018-06-25T15:54:19.869Z,2.9
2018-06-25T15:57:19.945Z,2.5
2018-06-25T16:00:20.143Z,3
2018-06-25T16:03:19.854Z,2.9
2018-06-25T16:06:20.274Z,3.9
2018-06-25T16:09:19.954Z,4.6
2018-06-25T16:12:19.872Z,4.4
2018-06-25T16:15:20.037Z,4.2
2018-06-25T16:18:19.835Z,4.9
2018-06-25T16:21:19.965Z,6.6
2018-06-25T16:24:19.872Z,6.7
2018-06-25T16:27:20.089Z,7.1
2018-06-25T16:30:19.858Z,5.7
2018-06-25T16:33:19.920Z,5.7
2018-06-25T16:36:20.101Z,7.5
2018-06-25T16:39:19.882Z,5.8
2018-06-25T16:42:20.041Z,6.7
2018-06-25T16:45:20.077Z,6.6
2018-06-25T16:48:19.883Z,6.1
2018-06-25T16:51:19.999Z,7.6
2018-06-25T16:54:19.990Z,7.4
2018-06-25T16:57:20.061Z,8.5
2018-06-25T17:00:19.798Z,6.9
2018-06-25T17:03:19.940Z,7.6
2018-06-25T17:06:20.059Z,6.4
2018-06-25T17:09:19.890Z,6.9
2018-06-25T17:12:19.889Z,6.7
2018-06-25T17:15:19.936Z,7.4
2018-06-25T17:18:19.978Z,7.1
2018-06-25T17:21:19.953Z,6.3
2018-06-25T17:24:20.219Z,7.7
2018-06-25T17:27:20.043Z,6.8
2018-06-25T17:30:20.014Z,6.5
2018-06-25T17:33:19.936Z,7
2018-06-25T17:36:19.952Z,5.7
2018-06-25T17:39:19.784Z,4.5
2018-06-25T17:42:19.987Z,5.5
2018-06-25T17:45:20.243Z,5.2
2018-06-25T17:48:20.639Z,5.5
2018-06-25T17:51:19.994Z,5.7
2018-06-25T17:54:19.919Z,5
2018-06-25T17:57:19.840Z,4.5
2018-06-25T18:00:19.872Z,5.3
2018-06-25T18:03:19.804Z,4.5
2018-06-25T18:06:19.810Z,4.3
2018-06-25T18:09:19.955Z,3.6
2018-06-25T18:12:19.782Z,4.3
2018-06-25T18:15:19.785Z,4
2018-06-25T18:18:20.094Z,4.1
2018-06-25T18:21:20.177Z,3.8
2018-06-25T18:24:20.028Z,4.1
2018-06-25T18:27:20.111Z,4.5
2018-06-25T18:30:19.859Z,4
2018-06-25T18:33:19.811Z,3.4
2018-06-25T18:36:20.031Z,3.5
2018-06-25T18:39:19.843Z,3.4
2018-06-25T18:42:19.917Z,3.8
2018-06-25T18:45:19.848Z,4.1
2018-06-25T18:48:19.895Z,4
2018-06-25T18:51:20.039Z,4.5
2018-06-25T18:54:19.924Z,4.2
2018-06-25T18:57:19.851Z,3.9
2018-06-25T19:00:20.080Z,3.1
2018-06-25T19:03:19.931Z,3.3
2018-06-25T19:06:19.774Z,2.9
2018-06-25T19:09:19.805Z,2.7
2018-06-25T19:12:19.916Z,2.6
2018-06-25T19:15:19.997Z,2.8
2018-06-25T19:18:19.957Z,2.8
2018-06-25T19:21:19.959Z,2.8
2018-06-25T19:24:19.931Z,3
2018-06-25T19:27:20.108Z,2.9
2018-06-25T19:30:19.899Z,2.4
2018-06-25T19:33:19.798Z,2.4
2018-06-25T19:36:20.103Z,2.9
2018-06-25T19:39:19.958Z,3.6
2018-06-25T19:42:19.855Z,4.1
2018-06-25T19:45:19.842Z,3.1
2018-06-25T19:48:20.029Z,3.6
2018-06-25T19:51:19.766Z,3.9
2018-06-25T19:54:20.077Z,4.3
2018-06-25T19:57:19.936Z,5.2
2018-06-25T20:00:19.925Z,4.2
2018-06-25T20:03:19.952Z,4.2
2018-06-25T20:06:20.024Z,5.4
2018-06-25T20:09:19.911Z,5.7
2018-06-25T20:12:19.818Z,5.4
2018-06-25T20:15:21.116Z,6.1
2018-06-25T20:18:19.846Z,5.9
2018-06-25T20:21:19.828Z,5.9
2018-06-25T20:24:19.970Z,4.8
2018-06-25T20:27:19.789Z,4.4
2018-06-25T20:30:19.891Z,3.9
2018-06-25T20:33:20.074Z,4.7
2018-06-25T20:36:21.335Z,4.8
2018-06-25T20:39:19.809Z,3.6
2018-06-25T20:42:19.860Z,3.7
2018-06-25T20:45:19.935Z,4.3
2018-06-25T20:48:19.922Z,3.3
2018-06-25T20:51:19.816Z,3.8
2018-06-25T20:54:19.930Z,3
2018-06-25T20:57:19.758Z,3.3
2018-06-25T21:00:20.045Z,3.3
2018-06-25T21:03:20.398Z,3.2
2018-06-25T21:06:19.909Z,2.8
2018-06-25T21:09:20.061Z,3
2018-06-25T21:12:19.972Z,3.1
2018-06-25T21:15:19.858Z,3.1
2018-06-25T21:18:19.839Z,3.2
2018-06-25T21:21:19.973Z,2.9
2018-06-25T21:24:29.824Z,3.4
2018-06-25T21:27:19.940Z,3.3
2018-06-25T21:30:19.968Z,2.9
2018-06-25T21:33:19.787Z,3
2018-06-25T21:36:19.833Z,2.9
2018-06-25T21:39:19.832Z,2.6
2018-06-25T21:42:19.960Z,2.7
2018-06-25T21:45:19.863Z,2.6
2018-06-25T21:48:20.223Z,2.5
2018-06-25T21:51:19.748Z,2.9
2018-06-25T21:54:19.914Z,2.8
2018-06-25T21:57:19.874Z,2.8
2018-06-25T22:00:19.753Z,2.3
2018-06-25T22:03:19.969Z,3.5
2018-06-25T22:06:19.840Z,2.9
2018-06-25T22:09:19.810Z,3.1
2018-06-25T22:12:20.278Z,2.6
2018-06-25T22:15:19.809Z,2.3
2018-06-25T22:18:20.009Z,2.4
2018-06-25T22:21:19.968Z,3
2018-06-25T22:24:19.707Z,3
2018-06-25T22:27:19.943Z,2.5
2018-06-25T22:30:20.024Z,2.2
2018-06-25T22:33:19.792Z,2.2
2018-06-25T22:36:20.359Z,2.2
2018-06-25T22:39:19.772Z,2.1
2018-06-25T22:42:20.103Z,2.5
2018-06-25T22:45:19.815Z,2.9
2018-06-25T22:48:19.708Z,2.5
2018-06-25T22:51:19.856Z,2.2
2018-06-25T22:54:19.950Z,2.2
2018-06-25T22:57:19.837Z,2.2
2018-06-25T23:00:19.739Z,2.6
2018-06-25T23:03:19.959Z,2.3
2018-06-25T23:06:19.934Z,2.5
2018-06-25T23:09:19.818Z,2.3
2018-06-25T23:12:19.793Z,2.1
2018-06-25T23:15:19.916Z,2.1
2018-06-25T23:18:19.987Z,2.4
2018-06-25T23:21:19.823Z,2.3
2018-06-25T23:24:19.973Z,2.1
2018-06-25T23:27:19.830Z,1.9
2018-06-25T23:30:19.832Z,2.2
2018-06-25T23:33:19.768Z,2.1
2018-06-25T23:36:19.842Z,2.2
2018-06-25T23:39:19.834Z,2.5
2018-06-25T23:42:19.789Z,2.6
2018-06-25T23:45:19.782Z,2.3
2018-06-25T23:48:19.844Z,2.4
2018-06-25T23:51:19.793Z,2
2018-06-25T23:54:19.836Z,2
2018-06-25T23:57:19.943Z,2
